sensor_id;sensor_type;location;lat;lon;timestamp;P1;durP1;ratioP1;P2;durP2;ratioP2
14001;SDS011;7076;51.280;12.584;2024-02-28T00:01:55;19.37;;;10.57;;
14001;SDS011;7076;51.280;12.584;2024-02-28T00:06:58;15.97;;;9.07;;
14001;SDS011;7076;51.280;12.584;2024-02-28T00:12:01;17.50;;;9.17;;
14001;SDS011;7076;51.280;12.584;2024-02-28T00:17:05;18.37;;;10.27;;
14001;SDS011;7076;51.280;12.584;2024-02-28T00:22:08;18.67;;;10.33;;
14001;SDS011;7076;51.280;12.584;2024-02-28T00:27:11;16.23;;;9.73;;
14001;SDS011;7076;51.280;12.584;2024-02-28T00:32:15;17.87;;;9.70;;
14001;SDS011;7076;51.280;12.584;2024-02-28T00:37:18;19.30;;;10.00;;
14001;SDS011;7076;51.280;12.584;2024-02-28T00:42:21;18.37;;;10.40;;
14001;SDS011;7076;51.280;12.584;2024-02-28T00:47:25;24.23;;;11.13;;
14001;SDS011;7076;51.280;12.584;2024-02-28T00:52:28;19.57;;;10.63;;
14001;SDS011;7076;51.280;12.584;2024-02-28T00:57:33;18.90;;;10.53;;
14001;SDS011;7076;51.280;12.584;2024-02-28T01:02:39;17.97;;;9.80;;
14001;SDS011;7076;51.280;12.584;2024-02-28T01:07:42;20.33;;;10.57;;
14001;SDS011;7076;51.280;12.584;2024-02-28T01:12:45;19.73;;;10.07;;
14001;SDS011;7076;51.280;12.584;2024-02-28T01:17:49;19.47;;;9.77;;
14001;SDS011;7076;51.280;12.584;2024-02-28T01:22:52;17.80;;;9.20;;
14001;SDS011;7076;51.280;12.584;2024-02-28T01:27:55;18.73;;;9.90;;
14001;SDS011;7076;51.280;12.584;2024-02-28T01:33:00;21.17;;;10.10;;
14001;SDS011;7076;51.280;12.584;2024-02-28T01:38:03;15.40;;;7.77;;
14001;SDS011;7076;51.280;12.584;2024-02-28T01:43:06;17.73;;;9.33;;
14001;SDS011;7076;51.280;12.584;2024-02-28T01:48:11;17.53;;;8.43;;
14001;SDS011;7076;51.280;12.584;2024-02-28T01:53:14;14.60;;;7.77;;
14001;SDS011;7076;51.280;12.584;2024-02-28T01:58:20;15.37;;;7.60;;
14001;SDS011;7076;51.280;12.584;2024-02-28T02:03:25;12.47;;;7.00;;
14001;SDS011;7076;51.280;12.584;2024-02-28T02:08:28;12.53;;;7.70;;
14001;SDS011;7076;51.280;12.584;2024-02-28T02:13:30;11.77;;;7.40;;
14001;SDS011;7076;51.280;12.584;2024-02-28T02:18:34;15.17;;;7.57;;
14001;SDS011;7076;51.280;12.584;2024-02-28T02:23:39;15.30;;;8.13;;
14001;SDS011;7076;51.280;12.584;2024-02-28T02:28:42;13.00;;;7.63;;
14001;SDS011;7076;51.280;12.584;2024-02-28T02:33:45;16.33;;;8.50;;
14001;SDS011;7076;51.280;12.584;2024-02-28T02:38:49;14.83;;;8.20;;
14001;SDS011;7076;51.280;12.584;2024-02-28T02:43:52;15.57;;;7.73;;
14001;SDS011;7076;51.280;12.584;2024-02-28T02:48:55;15.57;;;8.27;;
14001;SDS011;7076;51.280;12.584;2024-02-28T02:53:59;12.70;;;7.00;;
14001;SDS011;7076;51.280;12.584;2024-02-28T02:59:02;13.10;;;7.10;;
14001;SDS011;7076;51.280;12.584;2024-02-28T03:04:05;16.37;;;7.30;;
14001;SDS011;7076;51.280;12.584;2024-02-28T03:09:09;13.27;;;7.17;;
14001;SDS011;7076;51.280;12.584;2024-02-28T03:14:12;11.47;;;6.77;;
14001;SDS011;7076;51.280;12.584;2024-02-28T03:19:15;10.00;;;6.07;;
14001;SDS011;7076;51.280;12.584;2024-02-28T03:24:19;13.67;;;7.33;;
14001;SDS011;7076;51.280;12.584;2024-02-28T03:29:21;11.27;;;7.07;;
14001;SDS011;7076;51.280;12.584;2024-02-28T03:34:24;11.73;;;6.70;;
14001;SDS011;7076;51.280;12.584;2024-02-28T03:39:28;11.70;;;6.93;;
14001;SDS011;7076;51.280;12.584;2024-02-28T03:44:31;12.17;;;6.73;;
14001;SDS011;7076;51.280;12.584;2024-02-28T03:49:34;17.17;;;8.13;;
14001;SDS011;7076;51.280;12.584;2024-02-28T03:54:38;18.73;;;9.73;;
14001;SDS011;7076;51.280;12.584;2024-02-28T03:59:44;16.10;;;8.93;;
14001;SDS011;7076;51.280;12.584;2024-02-28T04:04:47;14.97;;;8.70;;
14001;SDS011;7076;51.280;12.584;2024-02-28T04:09:51;15.23;;;8.93;;
14001;SDS011;7076;51.280;12.584;2024-02-28T04:14:54;13.90;;;8.37;;
14001;SDS011;7076;51.280;12.584;2024-02-28T04:19:57;14.90;;;8.70;;
14001;SDS011;7076;51.280;12.584;2024-02-28T04:25:01;15.13;;;8.63;;
14001;SDS011;7076;51.280;12.584;2024-02-28T04:30:06;14.60;;;8.03;;
14001;SDS011;7076;51.280;12.584;2024-02-28T04:35:09;13.03;;;8.20;;
14001;SDS011;7076;51.280;12.584;2024-02-28T04:40:14;15.43;;;8.87;;
14001;SDS011;7076;51.280;12.584;2024-02-28T04:45:17;12.53;;;7.70;;
14001;SDS011;7076;51.280;12.584;2024-02-28T04:50:19;14.70;;;8.50;;
14001;SDS011;7076;51.280;12.584;2024-02-28T04:55:24;14.23;;;8.23;;
14001;SDS011;7076;51.280;12.584;2024-02-28T05:00:26;14.83;;;8.97;;
14001;SDS011;7076;51.280;12.584;2024-02-28T05:05:29;15.93;;;10.03;;
14001;SDS011;7076;51.280;12.584;2024-02-28T05:10:33;16.57;;;9.73;;
14001;SDS011;7076;51.280;12.584;2024-02-28T05:15:36;17.70;;;9.83;;
14001;SDS011;7076;51.280;12.584;2024-02-28T05:20:39;20.10;;;9.93;;
14001;SDS011;7076;51.280;12.584;2024-02-28T05:25:43;16.07;;;9.60;;
14001;SDS011;7076;51.280;12.584;2024-02-28T05:30:46;15.13;;;9.73;;
14001;SDS011;7076;51.280;12.584;2024-02-28T05:35:51;17.13;;;10.33;;
14001;SDS011;7076;51.280;12.584;2024-02-28T05:40:55;16.20;;;8.80;;
14001;SDS011;7076;51.280;12.584;2024-02-28T05:45:58;14.77;;;9.23;;
14001;SDS011;7076;51.280;12.584;2024-02-28T05:51:01;16.37;;;9.80;;
14001;SDS011;7076;51.280;12.584;2024-02-28T05:56:06;13.83;;;8.70;;
14001;SDS011;7076;51.280;12.584;2024-02-28T06:01:14;19.63;;;8.93;;
14001;SDS011;7076;51.280;12.584;2024-02-28T06:06:18;15.90;;;8.80;;
14001;SDS011;7076;51.280;12.584;2024-02-28T06:11:22;16.23;;;10.33;;
14001;SDS011;7076;51.280;12.584;2024-02-28T06:16:25;15.53;;;9.87;;
14001;SDS011;7076;51.280;12.584;2024-02-28T06:21:28;19.23;;;11.13;;
14001;SDS011;7076;51.280;12.584;2024-02-28T06:26:33;22.80;;;13.57;;
14001;SDS011;7076;51.280;12.584;2024-02-28T06:31:36;22.77;;;11.57;;
14001;SDS011;7076;51.280;12.584;2024-02-28T06:36:39;18.53;;;11.03;;
14001;SDS011;7076;51.280;12.584;2024-02-28T06:41:43;16.70;;;9.87;;
14001;SDS011;7076;51.280;12.584;2024-02-28T06:46:46;15.03;;;8.80;;
14001;SDS011;7076;51.280;12.584;2024-02-28T06:51:48;14.90;;;8.97;;
14001;SDS011;7076;51.280;12.584;2024-02-28T06:56:53;16.53;;;9.30;;
14001;SDS011;7076;51.280;12.584;2024-02-28T07:01:55;16.03;;;9.53;;
14001;SDS011;7076;51.280;12.584;2024-02-28T07:06:58;17.00;;;10.00;;
14001;SDS011;7076;51.280;12.584;2024-02-28T07:12:03;14.50;;;8.53;;
14001;SDS011;7076;51.280;12.584;2024-02-28T07:17:06;14.57;;;8.60;;
14001;SDS011;7076;51.280;12.584;2024-02-28T07:22:09;12.17;;;7.50;;
14001;SDS011;7076;51.280;12.584;2024-02-28T07:27:13;15.67;;;8.63;;
14001;SDS011;7076;51.280;12.584;2024-02-28T07:32:17;13.23;;;7.90;;
14001;SDS011;7076;51.280;12.584;2024-02-28T07:37:19;13.87;;;8.23;;
14001;SDS011;7076;51.280;12.584;2024-02-28T07:42:24;13.83;;;8.50;;
14001;SDS011;7076;51.280;12.584;2024-02-28T07:47:27;13.77;;;8.67;;
14001;SDS011;7076;51.280;12.584;2024-02-28T07:52:30;13.97;;;8.60;;
14001;SDS011;7076;51.280;12.584;2024-02-28T07:57:37;16.57;;;9.33;;
14001;SDS011;7076;51.280;12.584;2024-02-28T08:02:40;15.67;;;9.43;;
14001;SDS011;7076;51.280;12.584;2024-02-28T08:07:43;13.43;;;9.20;;
14001;SDS011;7076;51.280;12.584;2024-02-28T08:12:47;16.87;;;9.80;;
14001;SDS011;7076;51.280;12.584;2024-02-28T08:17:50;16.60;;;9.93;;
14001;SDS011;7076;51.280;12.584;2024-02-28T08:22:53;18.57;;;11.90;;
14001;SDS011;7076;51.280;12.584;2024-02-28T08:27:59;20.87;;;11.97;;
14001;SDS011;7076;51.280;12.584;2024-02-28T08:33:03;17.57;;;10.47;;
14001;SDS011;7076;51.280;12.584;2024-02-28T08:38:06;22.63;;;11.83;;
14001;SDS011;7076;51.280;12.584;2024-02-28T08:43:10;21.30;;;13.27;;
14001;SDS011;7076;51.280;12.584;2024-02-28T08:48:13;22.93;;;13.80;;
14001;SDS011;7076;51.280;12.584;2024-02-28T08:53:15;22.07;;;14.07;;
14001;SDS011;7076;51.280;12.584;2024-02-28T08:58:20;27.00;;;15.37;;
14001;SDS011;7076;51.280;12.584;2024-02-28T09:03:22;25.13;;;15.47;;
14001;SDS011;7076;51.280;12.584;2024-02-28T09:08:25;19.50;;;12.90;;
14001;SDS011;7076;51.280;12.584;2024-02-28T09:13:29;22.67;;;14.70;;
14001;SDS011;7076;51.280;12.584;2024-02-28T09:18:32;27.67;;;15.80;;
14001;SDS011;7076;51.280;12.584;2024-02-28T09:23:35;24.33;;;14.40;;
14001;SDS011;7076;51.280;12.584;2024-02-28T09:28:39;27.17;;;15.70;;
14001;SDS011;7076;51.280;12.584;2024-02-28T09:33:42;25.50;;;16.10;;
14001;SDS011;7076;51.280;12.584;2024-02-28T09:38:48;24.40;;;15.60;;
14001;SDS011;7076;51.280;12.584;2024-02-28T09:43:52;24.60;;;14.87;;
14001;SDS011;7076;51.280;12.584;2024-02-28T09:48:55;23.17;;;15.57;;
14001;SDS011;7076;51.280;12.584;2024-02-28T09:53:58;24.93;;;14.50;;
14001;SDS011;7076;51.280;12.584;2024-02-28T09:59:05;22.10;;;15.20;;
14001;SDS011;7076;51.280;12.584;2024-02-28T10:04:09;22.30;;;13.80;;
14001;SDS011;7076;51.280;12.584;2024-02-28T10:09:14;20.93;;;14.17;;
14001;SDS011;7076;51.280;12.584;2024-02-28T10:14:18;20.08;;;13.82;;
14001;SDS011;7076;51.280;12.584;2024-02-28T10:19:21;20.03;;;13.70;;
14001;SDS011;7076;51.280;12.584;2024-02-28T10:24:24;22.77;;;15.23;;
14001;SDS011;7076;51.280;12.584;2024-02-28T10:29:28;18.95;;;13.35;;
14001;SDS011;7076;51.280;12.584;2024-02-28T10:34:34;22.20;;;14.00;;
14001;SDS011;7076;51.280;12.584;2024-02-28T10:39:37;20.77;;;13.98;;
14001;SDS011;7076;51.280;12.584;2024-02-28T10:44:41;19.27;;;13.50;;
14001;SDS011;7076;51.280;12.584;2024-02-28T10:49:45;23.15;;;14.45;;
14001;SDS011;7076;51.280;12.584;2024-02-28T10:54:48;20.23;;;15.05;;
14001;SDS011;7076;51.280;12.584;2024-02-28T10:59:58;22.33;;;14.70;;
14001;SDS011;7076;51.280;12.584;2024-02-28T11:05:01;21.48;;;14.30;;
14001;SDS011;7076;51.280;12.584;2024-02-28T11:10:05;20.35;;;13.95;;
14001;SDS011;7076;51.280;12.584;2024-02-28T11:15:16;19.42;;;13.75;;
14001;SDS011;7076;51.280;12.584;2024-02-28T11:20:19;18.27;;;12.82;;
14001;SDS011;7076;51.280;12.584;2024-02-28T11:25:24;17.73;;;12.88;;
14001;SDS011;7076;51.280;12.584;2024-02-28T11:30:28;18.90;;;13.45;;
14001;SDS011;7076;51.280;12.584;2024-02-28T11:35:31;19.08;;;12.43;;
14001;SDS011;7076;51.280;12.584;2024-02-28T11:40:34;16.15;;;12.55;;
14001;SDS011;7076;51.280;12.584;2024-02-28T11:45:40;17.67;;;13.63;;
14001;SDS011;7076;51.280;12.584;2024-02-28T11:50:44;17.30;;;13.35;;
14001;SDS011;7076;51.280;12.584;2024-02-28T11:55:47;16.33;;;13.13;;
14001;SDS011;7076;51.280;12.584;2024-02-28T12:00:52;16.92;;;12.63;;
14001;SDS011;7076;51.280;12.584;2024-02-28T12:05:55;17.15;;;13.13;;
14001;SDS011;7076;51.280;12.584;2024-02-28T12:11:05;13.48;;;11.90;;
14001;SDS011;7076;51.280;12.584;2024-02-28T12:16:10;15.52;;;12.57;;
14001;SDS011;7076;51.280;12.584;2024-02-28T12:21:13;13.30;;;11.40;;
14001;SDS011;7076;51.280;12.584;2024-02-28T12:26:16;11.77;;;10.57;;
14001;SDS011;7076;51.280;12.584;2024-02-28T12:31:21;13.05;;;11.65;;
14001;SDS011;7076;51.280;12.584;2024-02-28T12:36:24;12.80;;;10.93;;
14001;SDS011;7076;51.280;12.584;2024-02-28T12:41:28;14.45;;;11.32;;
14001;SDS011;7076;51.280;12.584;2024-02-28T12:46:33;11.98;;;10.75;;
14001;SDS011;7076;51.280;12.584;2024-02-28T12:51:36;12.50;;;11.20;;
14001;SDS011;7076;51.280;12.584;2024-02-28T12:56:42;12.40;;;10.98;;
14001;SDS011;7076;51.280;12.584;2024-02-28T13:01:46;12.95;;;11.55;;
14001;SDS011;7076;51.280;12.584;2024-02-28T13:06:50;13.15;;;11.85;;
14001;SDS011;7076;51.280;12.584;2024-02-28T13:11:53;12.70;;;11.40;;
14001;SDS011;7076;51.280;12.584;2024-02-28T13:16:57;12.02;;;10.43;;
14001;SDS011;7076;51.280;12.584;2024-02-28T13:22:04;18.42;;;11.68;;
14001;SDS011;7076;51.280;12.584;2024-02-28T13:27:07;12.90;;;10.52;;
14001;SDS011;7076;51.280;12.584;2024-02-28T13:32:12;12.77;;;10.60;;
14001;SDS011;7076;51.280;12.584;2024-02-28T13:37:15;12.70;;;10.23;;
14001;SDS011;7076;51.280;12.584;2024-02-28T13:42:18;12.23;;;9.45;;
14001;SDS011;7076;51.280;12.584;2024-02-28T13:47:23;14.93;;;10.27;;
14001;SDS011;7076;51.280;12.584;2024-02-28T13:52:26;11.77;;;9.27;;
14001;SDS011;7076;51.280;12.584;2024-02-28T13:57:29;12.32;;;8.43;;
14001;SDS011;7076;51.280;12.584;2024-02-28T14:02:33;12.00;;;9.13;;
14001;SDS011;7076;51.280;12.584;2024-02-28T14:07:36;10.98;;;8.30;;
14001;SDS011;7076;51.280;12.584;2024-02-28T14:12:41;10.55;;;8.48;;
14001;SDS011;7076;51.280;12.584;2024-02-28T14:17:45;11.85;;;8.98;;
14001;SDS011;7076;51.280;12.584;2024-02-28T14:22:48;12.00;;;8.95;;
14001;SDS011;7076;51.280;12.584;2024-02-28T14:27:51;9.85;;;8.02;;
14001;SDS011;7076;51.280;12.584;2024-02-28T14:32:56;11.90;;;9.45;;
14001;SDS011;7076;51.280;12.584;2024-02-28T14:37:59;12.25;;;9.02;;
14001;SDS011;7076;51.280;12.584;2024-02-28T14:43:02;11.20;;;7.88;;
14001;SDS011;7076;51.280;12.584;2024-02-28T14:48:06;10.88;;;7.75;;
14001;SDS011;7076;51.280;12.584;2024-02-28T14:53:09;9.88;;;7.35;;
14001;SDS011;7076;51.280;12.584;2024-02-28T14:58:12;12.20;;;7.38;;
14001;SDS011;7076;51.280;12.584;2024-02-28T15:03:17;11.88;;;7.82;;
14001;SDS011;7076;51.280;12.584;2024-02-28T15:08:20;10.43;;;7.80;;
14001;SDS011;7076;51.280;12.584;2024-02-28T15:13:23;9.07;;;6.65;;
14001;SDS011;7076;51.280;12.584;2024-02-28T15:18:27;9.73;;;7.40;;
14001;SDS011;7076;51.280;12.584;2024-02-28T15:23:30;11.43;;;7.80;;
14001;SDS011;7076;51.280;12.584;2024-02-28T15:28:33;8.27;;;6.28;;
14001;SDS011;7076;51.280;12.584;2024-02-28T15:33:37;9.05;;;6.60;;
14001;SDS011;7076;51.280;12.584;2024-02-28T15:38:40;8.60;;;6.13;;
14001;SDS011;7076;51.280;12.584;2024-02-28T15:43:43;11.93;;;7.20;;
14001;SDS011;7076;51.280;12.584;2024-02-28T15:48:47;8.77;;;6.50;;
14001;SDS011;7076;51.280;12.584;2024-02-28T15:53:50;8.95;;;5.82;;
14001;SDS011;7076;51.280;12.584;2024-02-28T15:58:53;8.57;;;6.30;;
14001;SDS011;7076;51.280;12.584;2024-02-28T16:03:57;9.38;;;6.22;;
14001;SDS011;7076;51.280;12.584;2024-02-28T16:09:00;8.75;;;6.40;;
14001;SDS011;7076;51.280;12.584;2024-02-28T16:14:05;7.82;;;5.97;;
14001;SDS011;7076;51.280;12.584;2024-02-28T16:19:09;10.63;;;6.32;;
14001;SDS011;7076;51.280;12.584;2024-02-28T16:24:23;8.07;;;6.18;;
14001;SDS011;7076;51.280;12.584;2024-02-28T16:29:26;9.55;;;6.13;;
14001;SDS011;7076;51.280;12.584;2024-02-28T16:34:30;9.10;;;5.80;;
14001;SDS011;7076;51.280;12.584;2024-02-28T16:39:33;9.07;;;6.03;;
14001;SDS011;7076;51.280;12.584;2024-02-28T16:44:36;9.73;;;6.55;;
14001;SDS011;7076;51.280;12.584;2024-02-28T16:49:40;10.55;;;6.00;;
14001;SDS011;7076;51.280;12.584;2024-02-28T16:54:43;8.98;;;5.88;;
14001;SDS011;7076;51.280;12.584;2024-02-28T16:59:48;7.72;;;5.47;;
14001;SDS011;7076;51.280;12.584;2024-02-28T17:04:53;9.05;;;5.97;;
14001;SDS011;7076;51.280;12.584;2024-02-28T17:09:55;10.52;;;6.03;;
14001;SDS011;7076;51.280;12.584;2024-02-28T17:14:59;10.00;;;6.80;;
14001;SDS011;7076;51.280;12.584;2024-02-28T17:20:04;11.13;;;6.15;;
14001;SDS011;7076;51.280;12.584;2024-02-28T17:25:09;13.27;;;8.77;;
14001;SDS011;7076;51.280;12.584;2024-02-28T17:30:12;12.70;;;8.10;;
14001;SDS011;7076;51.280;12.584;2024-02-28T17:35:17;19.40;;;12.45;;
14001;SDS011;7076;51.280;12.584;2024-02-28T17:40:20;20.90;;;12.55;;
14001;SDS011;7076;51.280;12.584;2024-02-28T17:45:23;18.48;;;11.70;;
14001;SDS011;7076;51.280;12.584;2024-02-28T17:56:24;20.08;;;11.40;;
14001;SDS011;7076;51.280;12.584;2024-02-28T18:01:27;18.40;;;11.63;;
14001;SDS011;7076;51.280;12.584;2024-02-28T18:06:30;23.67;;;13.57;;
14001;SDS011;7076;51.280;12.584;2024-02-28T18:11:34;21.80;;;13.90;;
14001;SDS011;7076;51.280;12.584;2024-02-28T18:16:38;21.77;;;13.57;;
14001;SDS011;7076;51.280;12.584;2024-02-28T18:21:41;23.17;;;12.27;;
14001;SDS011;7076;51.280;12.584;2024-02-28T18:27:12;20.50;;;11.30;;
14001;SDS011;7076;51.280;12.584;2024-02-28T18:32:28;15.37;;;10.30;;
14001;SDS011;7076;51.280;12.584;2024-02-28T18:37:32;22.47;;;10.93;;
14001;SDS011;7076;51.280;12.584;2024-02-28T18:42:36;24.73;;;13.00;;
14001;SDS011;7076;51.280;12.584;2024-02-28T18:47:39;20.73;;;13.03;;
14001;SDS011;7076;51.280;12.584;2024-02-28T18:52:42;22.83;;;12.50;;
14001;SDS011;7076;51.280;12.584;2024-02-28T18:57:47;18.37;;;11.20;;
14001;SDS011;7076;51.280;12.584;2024-02-28T19:02:50;15.57;;;11.30;;
14001;SDS011;7076;51.280;12.584;2024-02-28T19:07:55;14.60;;;9.87;;
14001;SDS011;7076;51.280;12.584;2024-02-28T19:12:59;15.40;;;9.50;;
14001;SDS011;7076;51.280;12.584;2024-02-28T19:18:02;17.40;;;9.17;;
14001;SDS011;7076;51.280;12.584;2024-02-28T19:23:05;15.93;;;9.03;;
14001;SDS011;7076;51.280;12.584;2024-02-28T19:28:09;14.00;;;9.20;;
14001;SDS011;7076;51.280;12.584;2024-02-28T19:33:12;18.70;;;9.60;;
14001;SDS011;7076;51.280;12.584;2024-02-28T19:38:15;18.10;;;10.00;;
14001;SDS011;7076;51.280;12.584;2024-02-28T19:43:19;17.03;;;10.53;;
14001;SDS011;7076;51.280;12.584;2024-02-28T19:48:22;18.93;;;11.17;;
14001;SDS011;7076;51.280;12.584;2024-02-28T19:53:25;19.20;;;10.07;;
14001;SDS011;7076;51.280;12.584;2024-02-28T19:58:32;22.30;;;11.03;;
14001;SDS011;7076;51.280;12.584;2024-02-28T20:03:35;20.23;;;10.33;;
14001;SDS011;7076;51.280;12.584;2024-02-28T20:08:38;16.50;;;8.93;;
14001;SDS011;7076;51.280;12.584;2024-02-28T20:13:42;13.13;;;7.50;;
14001;SDS011;7076;51.280;12.584;2024-02-28T20:18:49;13.67;;;7.90;;
14001;SDS011;7076;51.280;12.584;2024-02-28T20:23:53;14.17;;;7.93;;
14001;SDS011;7076;51.280;12.584;2024-02-28T20:28:58;14.83;;;7.87;;
14001;SDS011;7076;51.280;12.584;2024-02-28T20:34:01;15.23;;;8.53;;
14001;SDS011;7076;51.280;12.584;2024-02-28T20:39:04;12.37;;;7.83;;
14001;SDS011;7076;51.280;12.584;2024-02-28T20:44:12;14.20;;;9.03;;
14001;SDS011;7076;51.280;12.584;2024-02-28T20:49:14;13.67;;;8.53;;
14001;SDS011;7076;51.280;12.584;2024-02-28T20:54:18;12.77;;;8.90;;
14001;SDS011;7076;51.280;12.584;2024-02-28T20:59:22;12.47;;;7.47;;
14001;SDS011;7076;51.280;12.584;2024-02-28T21:04:27;19.10;;;9.00;;
14001;SDS011;7076;51.280;12.584;2024-02-28T21:09:31;16.13;;;7.97;;
14001;SDS011;7076;51.280;12.584;2024-02-28T21:14:35;14.17;;;8.60;;
14001;SDS011;7076;51.280;12.584;2024-02-28T21:19:38;13.33;;;8.30;;
14001;SDS011;7076;51.280;12.584;2024-02-28T21:24:41;12.77;;;7.30;;
14001;SDS011;7076;51.280;12.584;2024-02-28T21:29:45;11.10;;;7.63;;
14001;SDS011;7076;51.280;12.584;2024-02-28T21:34:48;11.93;;;7.37;;
14001;SDS011;7076;51.280;12.584;2024-02-28T21:39:51;14.73;;;8.07;;
14001;SDS011;7076;51.280;12.584;2024-02-28T21:44:56;13.73;;;8.03;;
14001;SDS011;7076;51.280;12.584;2024-02-28T21:49:59;14.90;;;8.70;;
14001;SDS011;7076;51.280;12.584;2024-02-28T21:55:02;16.73;;;10.13;;
14001;SDS011;7076;51.280;12.584;2024-02-28T22:00:08;14.00;;;9.10;;
14001;SDS011;7076;51.280;12.584;2024-02-28T22:05:13;16.67;;;9.47;;
14001;SDS011;7076;51.280;12.584;2024-02-28T22:10:16;14.70;;;9.37;;
14001;SDS011;7076;51.280;12.584;2024-02-28T22:15:22;16.00;;;9.47;;
14001;SDS011;7076;51.280;12.584;2024-02-28T22:20:25;15.40;;;8.87;;
14001;SDS011;7076;51.280;12.584;2024-02-28T22:25:28;16.90;;;9.67;;
14001;SDS011;7076;51.280;12.584;2024-02-28T22:30:32;16.20;;;9.63;;
14001;SDS011;7076;51.280;12.584;2024-02-28T22:35:35;13.77;;;8.30;;
14001;SDS011;7076;51.280;12.584;2024-02-28T22:40:38;14.17;;;8.50;;
14001;SDS011;7076;51.280;12.584;2024-02-28T22:45:42;15.53;;;9.27;;
14001;SDS011;7076;51.280;12.584;2024-02-28T22:50:47;16.33;;;9.80;;
14001;SDS011;7076;51.280;12.584;2024-02-28T22:55:49;15.77;;;9.20;;
14001;SDS011;7076;51.280;12.584;2024-02-28T23:00:54;14.63;;;8.40;;
14001;SDS011;7076;51.280;12.584;2024-02-28T23:05:57;15.90;;;9.90;;
14001;SDS011;7076;51.280;12.584;2024-02-28T23:11:01;17.77;;;10.13;;
14001;SDS011;7076;51.280;12.584;2024-02-28T23:16:06;15.40;;;8.53;;
14001;SDS011;7076;51.280;12.584;2024-02-28T23:21:09;16.07;;;8.97;;
14001;SDS011;7076;51.280;12.584;2024-02-28T23:26:12;17.17;;;8.53;;
14001;SDS011;7076;51.280;12.584;2024-02-28T23:31:16;14.53;;;8.33;;
14001;SDS011;7076;51.280;12.584;2024-02-28T23:36:22;15.30;;;8.97;;
14001;SDS011;7076;51.280;12.584;2024-02-28T23:41:25;15.57;;;8.90;;
14001;SDS011;7076;51.280;12.584;2024-02-28T23:46:32;13.87;;;7.73;;
14001;SDS011;7076;51.280;12.584;2024-02-28T23:51:34;15.97;;;8.40;;
14001;SDS011;7076;51.280;12.584;2024-02-28T23:56:37;14.37;;;8.63;;
